Time;durP1;ratioP1;P1;durP2;ratioP2;P2;SDS_P1;SDS_P2;PMS_P1;PMS_P2;Temp;Humidity;BMP_temperature;BMP_pressure;BME280_temperature;BME280_humidity;BME280_pressure;Samples;Min_cycle;Max_cycle;Signal;HPM_P1;HPM_P2
2023/10/27 00:01:10;;;;;;;5.13;4.73;;;;;;;;;;4972340;28;20221;-84
2023/10/27 00:03:36;;;;;;;4.87;4.50;;;;;;;;;;4974938;28;20243;-82
2023/10/27 00:06:04;;;;;;;4.30;4.10;;;;;;;;;;4963929;28;20296;-82
2023/10/27 00:08:30;;;;;;;4.20;3.90;;;;;;;;;;4950545;28;20359;-85
2023/10/27 00:11:03;;;;;;;4.77;3.87;;;;;;;;;;4963808;28;20361;-83
2023/10/27 00:13:28;;;;;;;3.87;3.57;;;;;;;;;;4973916;28;20236;-82
2023/10/27 00:15:54;;;;;;;4.20;3.83;;;;;;;;;;4976013;28;20232;-82
2023/10/27 00:18:19;;;;;;;3.37;3.17;;;;;;;;;;4966863;28;20221;-84
2023/10/27 00:20:44;;;;;;;3.83;3.53;;;;;;;;;;4976652;28;20293;-84
2023/10/27 00:23:15;;;;;;;3.57;3.27;;;;;;;;;;4975743;28;20225;-85
2023/10/27 00:25:43;;;;;;;3.47;3.23;;;;;;;;;;4960051;28;20253;-84
2023/10/27 00:28:10;;;;;;;3.20;3.00;;;;;;;;;;4943596;28;20233;-83
2023/10/27 00:30:36;;;;;;;3.57;3.37;;;;;;;;;;4973951;28;20226;-85
2023/10/27 00:33:04;;;;;;;3.60;3.30;;;;;;;;;;4942985;28;20268;-86
2023/10/27 00:35:29;;;;;;;3.47;3.27;;;;;;;;;;4963850;28;20251;-85
2023/10/27 00:37:59;;;;;;;3.40;3.10;;;;;;;;;;4990930;28;20225;-84
2023/10/27 00:40:25;;;;;;;4.47;3.40;;;;;;;;;;4975956;28;20229;-85
2023/10/27 00:42:58;;;;;;;3.53;3.23;;;;;;;;;;4972207;28;20256;-84
2023/10/27 00:45:26;;;;;;;3.80;3.50;;;;;;;;;;4973306;28;20657;-86
2023/10/27 00:47:54;;;;;;;4.03;3.30;;;;;;;;;;4996179;28;20228;-86
2023/10/27 00:50:20;;;;;;;3.40;3.20;;;;;;;;;;4960870;28;20238;-88
2023/10/27 00:52:45;;;;;;;3.07;2.90;;;;;;;;;;4963401;28;20221;-87
2023/10/27 00:55:14;;;;;;;3.13;2.93;;;;;;;;;;4963620;28;20239;-85
2023/10/27 00:57:44;;;;;;;3.50;3.20;;;;;;;;;;4963071;28;20288;-84
2023/10/27 01:00:10;;;;;;;3.03;2.83;;;;;;;;;;4973044;28;20690;-86
2023/10/27 01:02:36;;;;;;;4.20;3.10;;;;;;;;;;4960430;28;20327;-85
2023/10/27 01:05:04;;;;;;;3.97;3.17;;;;;;;;;;4964267;28;20249;-87
2023/10/27 01:07:30;;;;;;;3.17;2.97;;;;;;;;;;4950175;28;20605;-86
2023/10/27 01:09:55;;;;;;;3.50;3.30;;;;;;;;;;4959459;28;20229;-86
2023/10/27 01:12:26;;;;;;;3.27;3.07;;;;;;;;;;4946112;28;20232;-87
2023/10/27 01:14:52;;;;;;;3.50;3.30;;;;;;;;;;4962673;28;20233;-88
2023/10/27 01:17:17;;;;;;;3.53;3.23;;;;;;;;;;4994381;28;20276;-85
2023/10/27 01:19:46;;;;;;;3.60;3.30;;;;;;;;;;4960970;28;20949;-87
2023/10/27 01:22:15;;;;;;;3.50;3.20;;;;;;;;;;4964535;28;20279;-85
2023/10/27 01:24:41;;;;;;;3.40;3.20;;;;;;;;;;4962898;28;20567;-85
2023/10/27 01:27:07;;;;;;;3.57;3.27;;;;;;;;;;4963447;28;20931;-84
2023/10/27 01:29:35;;;;;;;3.50;3.30;;;;;;;;;;4966083;28;20225;-86
2023/10/27 01:32:03;;;;;;;3.17;2.97;;;;;;;;;;4959592;28;20218;-86
2023/10/27 01:34:31;;;;;;;3.50;3.23;;;;;;;;;;4983833;28;20237;-84
2023/10/27 01:36:56;;;;;;;3.40;3.20;;;;;;;;;;4998694;28;20320;-89
2023/10/27 01:39:22;;;;;;;3.10;2.90;;;;;;;;;;4966270;28;20222;-86
2023/10/27 01:41:47;;;;;;;3.33;3.13;;;;;;;;;;4966575;28;20235;-86
2023/10/27 01:44:13;;;;;;;3.63;3.37;;;;;;;;;;4983787;28;20222;-85
2023/10/27 01:46:38;;;;;;;3.73;3.40;;;;;;;;;;4970472;28;20221;-84
2023/10/27 01:49:08;;;;;;;3.40;3.10;;;;;;;;;;4991191;28;20287;-85
2023/10/27 01:51:39;;;;;;;3.40;3.20;;;;;;;;;;4965068;28;20245;-83
2023/10/27 01:54:07;;;;;;;3.70;3.40;;;;;;;;;;4979148;28;20259;-85
2023/10/27 01:56:34;;;;;;;3.33;3.13;;;;;;;;;;4967085;28;20722;-82
2023/10/27 01:59:04;;;;;;;3.60;3.40;;;;;;;;;;4964538;28;20574;-83
2023/10/27 02:01:30;;;;;;;4.00;3.70;;;;;;;;;;4967094;28;20225;-84
2023/10/27 02:03:55;;;;;;;3.40;3.20;;;;;;;;;;4970805;28;20221;-85
2023/10/27 02:06:24;;;;;;;3.70;3.40;;;;;;;;;;4980319;28;20280;-85
2023/10/27 02:08:52;;;;;;;3.40;3.20;;;;;;;;;;4989661;28;20273;-84
2023/10/27 02:11:18;;;;;;;3.53;3.33;;;;;;;;;;4981002;28;20210;-83
2023/10/27 02:13:44;;;;;;;3.70;3.40;;;;;;;;;;4979609;28;20214;-86
2023/10/27 02:16:12;;;;;;;3.80;3.50;;;;;;;;;;4959514;28;20643;-85
2023/10/27 02:18:40;;;;;;;3.70;3.40;;;;;;;;;;4978400;28;20233;-85
2023/10/27 02:21:08;;;;;;;3.80;3.50;;;;;;;;;;4964407;28;20213;-84
2023/10/27 02:23:38;;;;;;;3.37;3.17;;;;;;;;;;4958238;28;20217;-83
2023/10/27 02:26:05;;;;;;;3.90;3.60;;;;;;;;;;4942863;28;20385;-84
2023/10/27 02:28:33;;;;;;;4.40;3.37;;;;;;;;;;4961368;28;20224;-85
2023/10/27 02:30:58;;;;;;;3.90;3.60;;;;;;;;;;4975395;28;20308;-86
2023/10/27 02:33:26;;;;;;;4.43;4.03;;;;;;;;;;4965212;28;20280;-86
2023/10/27 02:35:51;;;;;;;4.43;4.10;;;;;;;;;;4949755;28;20590;-85
2023/10/27 02:38:19;;;;;;;5.27;4.77;;;;;;;;;;4980099;28;20228;-85
2023/10/27 02:40:44;;;;;;;5.67;5.13;;;;;;;;;;4977719;28;20645;-85
2023/10/27 02:43:11;;;;;;;9.60;5.87;;;;;;;;;;4991434;28;20218;-84
2023/10/27 02:45:42;;;;;;;6.27;5.77;;;;;;;;;;4967257;28;20221;-83
2023/10/27 02:48:10;;;;;;;6.50;5.90;;;;;;;;;;4960393;28;20287;-85
2023/10/27 02:50:35;;;;;;;7.73;6.93;;;;;;;;;;4967019;28;20225;-87
2023/10/27 02:53:01;;;;;;;7.50;6.90;;;;;;;;;;4963430;28;20218;-88
2023/10/27 02:55:29;;;;;;;8.73;7.83;;;;;;;;;;4963697;28;20228;-87
2023/10/27 02:57:55;;;;;;;8.33;7.63;;;;;;;;;;4965768;28;20602;-86
2023/10/27 03:00:21;;;;;;;8.67;7.77;;;;;;;;;;4982692;28;20687;-86
2023/10/27 03:02:47;;;;;;;8.63;7.90;;;;;;;;;;4949667;28;20251;-85
2023/10/27 03:05:15;;;;;;;9.77;8.77;;;;;;;;;;4947930;28;20686;-85
2023/10/27 03:07:41;;;;;;;9.70;8.70;;;;;;;;;;4988771;28;20221;-86
2023/10/27 03:10:09;;;;;;;9.43;8.60;;;;;;;;;;4977724;28;20213;-85
2023/10/27 03:12:37;;;;;;;9.37;8.57;;;;;;;;;;4984059;28;20291;-86
2023/10/27 03:15:02;;;;;;;9.57;8.77;;;;;;;;;;4977648;28;20700;-84
2023/10/27 03:17:30;;;;;;;9.73;8.83;;;;;;;;;;4978761;28;20312;-88
2023/10/27 03:19:57;;;;;;;9.40;8.40;;;;;;;;;;4992306;28;20224;-85
2023/10/27 03:22:22;;;;;;;10.10;8.90;;;;;;;;;;4967407;28;20222;-85
2023/10/27 03:24:48;;;;;;;10.03;9.00;;;;;;;;;;4977163;28;20213;-87
2023/10/27 03:27:14;;;;;;;9.33;8.43;;;;;;;;;;4987581;28;20277;-85
2023/10/27 03:29:39;;;;;;;11.33;9.30;;;;;;;;;;4992559;28;20398;-88
2023/10/27 03:32:08;;;;;;;13.67;9.37;;;;;;;;;;4986429;28;20248;-86
2023/10/27 03:34:33;;;;;;;13.37;8.90;;;;;;;;;;4995232;28;20229;-87
2023/10/27 03:37:00;;;;;;;10.90;9.77;;;;;;;;;;4959718;28;20210;-85
2023/10/27 03:39:35;;;;;;;11.37;10.37;;;;;;;;;;4983663;28;20529;-86
2023/10/27 03:42:00;;;;;;;11.13;10.13;;;;;;;;;;4962560;28;20243;-86
2023/10/27 03:44:26;;;;;;;11.63;10.43;;;;;;;;;;5002306;28;20702;-86
2023/10/27 03:46:56;;;;;;;11.73;10.53;;;;;;;;;;4967247;28;20217;-87
2023/10/27 03:49:24;;;;;;;11.90;10.70;;;;;;;;;;4967715;28;20229;-86
2023/10/27 03:51:52;;;;;;;13.63;10.77;;;;;;;;;;4964999;28;20285;-87
2023/10/27 03:54:20;;;;;;;11.63;10.43;;;;;;;;;;4972535;28;20217;-86
2023/10/27 03:56:48;;;;;;;13.07;11.83;;;;;;;;;;4980732;28;20252;-87
2023/10/27 04:03:37;;;;;;;12.80;11.53;;;;;;;;;;4995745;28;20597;-86
2023/10/27 04:06:03;;;;;;;13.03;11.73;;;;;;;;;;4987010;28;20221;-86
2023/10/27 04:08:29;;;;;;;13.80;12.40;;;;;;;;;;4979259;28;20224;-86
2023/10/27 04:10:57;;;;;;;13.83;12.43;;;;;;;;;;4963287;28;20605;-84
2023/10/27 04:13:22;;;;;;;13.57;12.23;;;;;;;;;;4976167;28;20620;-86
2023/10/27 04:15:48;;;;;;;13.47;12.10;;;;;;;;;;4980125;28;20233;-87
2023/10/27 04:18:15;;;;;;;13.37;11.97;;;;;;;;;;4979601;28;20221;-87
2023/10/27 04:20:48;;;;;;;12.60;11.43;;;;;;;;;;4962969;28;20221;-85
2023/10/27 04:23:16;;;;;;;13.10;11.80;;;;;;;;;;4973001;28;20230;-85
2023/10/27 04:25:41;;;;;;;13.47;12.07;;;;;;;;;;4959745;28;20248;-86
2023/10/27 04:28:13;;;;;;;13.67;12.23;;;;;;;;;;4969662;28;20622;-86
2023/10/27 04:30:38;;;;;;;14.63;13.13;;;;;;;;;;4959482;28;20279;-86
2023/10/27 04:33:09;;;;;;;14.40;13.00;;;;;;;;;;4963846;28;20766;-85
2023/10/27 04:35:37;;;;;;;14.87;13.33;;;;;;;;;;4979953;28;20233;-85
2023/10/27 04:38:03;;;;;;;14.93;13.27;;;;;;;;;;4959450;28;20205;-87
2023/10/27 04:40:30;;;;;;;14.80;13.30;;;;;;;;;;4964962;28;20217;-85
2023/10/27 04:42:59;;;;;;;15.03;13.13;;;;;;;;;;4959922;28;20264;-87
2023/10/27 04:45:25;;;;;;;14.90;13.33;;;;;;;;;;4994816;28;20247;-84
2023/10/27 04:47:51;;;;;;;14.50;13.17;;;;;;;;;;4981657;28;20654;-84
2023/10/27 04:50:18;;;;;;;14.33;12.93;;;;;;;;;;4973038;28;20213;-87
2023/10/27 04:52:46;;;;;;;13.70;12.37;;;;;;;;;;4979003;28;20712;-85
2023/10/27 04:55:12;;;;;;;14.70;13.23;;;;;;;;;;4964496;28;20714;-86
2023/10/27 04:57:37;;;;;;;14.43;12.90;;;;;;;;;;4964404;28;20592;-85
2023/10/27 05:00:10;;;;;;;13.63;12.37;;;;;;;;;;4979702;28;20230;-86
2023/10/27 05:02:35;;;;;;;14.07;12.60;;;;;;;;;;4991769;28;20245;-87
2023/10/27 05:05:01;;;;;;;13.53;11.73;;;;;;;;;;4985669;28;20228;-88
2023/10/27 05:07:26;;;;;;;12.77;11.57;;;;;;;;;;4973435;28;20252;-87
2023/10/27 05:09:52;;;;;;;11.73;10.63;;;;;;;;;;4997588;28;20267;-86
2023/10/27 05:12:18;;;;;;;12.33;11.30;;;;;;;;;;4957074;28;20233;-85
2023/10/27 05:14:44;;;;;;;12.20;10.97;;;;;;;;;;4969492;28;20222;-85
2023/10/27 05:17:09;;;;;;;11.70;10.03;;;;;;;;;;4975001;28;20267;-85
2023/10/27 05:19:37;;;;;;;11.13;10.13;;;;;;;;;;5000938;28;20332;-86
2023/10/27 05:22:05;;;;;;;10.37;9.37;;;;;;;;;;4981283;28;20229;-84
2023/10/27 05:24:32;;;;;;;11.50;9.40;;;;;;;;;;4963297;28;20241;-85
2023/10/27 05:27:01;;;;;;;9.70;8.30;;;;;;;;;;4974740;28;20233;-86
2023/10/27 05:29:29;;;;;;;9.23;8.43;;;;;;;;;;4956440;28;20214;-86
2023/10/27 05:31:59;;;;;;;9.47;8.47;;;;;;;;;;4959139;28;20222;-85
2023/10/27 05:34:25;;;;;;;8.53;7.77;;;;;;;;;;4961227;28;20249;-86
2023/10/27 05:36:50;;;;;;;12.17;7.87;;;;;;;;;;4954457;28;20237;-86
2023/10/27 05:39:16;;;;;;;9.40;8.47;;;;;;;;;;4984162;28;20247;-87
2023/10/27 05:41:47;;;;;;;8.63;7.83;;;;;;;;;;4972314;28;20240;-86
2023/10/27 05:44:15;;;;;;;9.13;8.27;;;;;;;;;;4950795;28;20629;-84
2023/10/27 05:46:40;;;;;;;8.53;7.83;;;;;;;;;;4951802;28;20245;-87
2023/10/27 05:49:06;;;;;;;8.50;7.80;;;;;;;;;;4954288;28;20232;-88
2023/10/27 05:51:33;;;;;;;9.27;8.37;;;;;;;;;;4947714;28;20222;-86
2023/10/27 05:53:59;;;;;;;8.20;7.50;;;;;;;;;;4982319;28;20683;-85
2023/10/27 05:56:27;;;;;;;8.07;7.47;;;;;;;;;;4984555;28;20230;-83
2023/10/27 05:58:55;;;;;;;8.00;7.40;;;;;;;;;;4986704;28;20225;-86
2023/10/27 06:01:23;;;;;;;8.13;7.43;;;;;;;;;;4969393;28;20225;-85
2023/10/27 06:03:49;;;;;;;8.03;7.33;;;;;;;;;;4983143;28;20237;-85
2023/10/27 06:06:14;;;;;;;8.70;8.00;;;;;;;;;;4977900;28;20216;-85
2023/10/27 06:08:45;;;;;;;9.20;8.40;;;;;;;;;;4968368;28;20217;-84
2023/10/27 06:11:11;;;;;;;9.20;8.13;;;;;;;;;;4986596;28;20228;-85
2023/10/27 06:13:37;;;;;;;8.63;7.93;;;;;;;;;;4980546;28;20226;-84
2023/10/27 06:16:03;;;;;;;9.77;8.97;;;;;;;;;;4963370;28;20229;-88
2023/10/27 06:18:29;;;;;;;9.73;8.73;;;;;;;;;;4997082;28;20323;-85
2023/10/27 06:20:55;;;;;;;9.57;8.40;;;;;;;;;;4984385;28;20288;-87
2023/10/27 06:23:20;;;;;;;9.83;8.80;;;;;;;;;;4979018;28;20213;-84
2023/10/27 06:25:46;;;;;;;9.83;8.83;;;;;;;;;;4968771;28;20230;-84
2023/10/27 06:28:16;;;;;;;10.57;9.60;;;;;;;;;;4970456;28;20577;-85
2023/10/27 06:30:42;;;;;;;11.77;9.10;;;;;;;;;;4963677;28;20222;-85
2023/10/27 06:33:07;;;;;;;10.93;8.80;;;;;;;;;;4967572;28;20767;-86
2023/10/27 06:35:35;;;;;;;10.97;9.87;;;;;;;;;;4965579;28;20226;-86
2023/10/27 06:38:01;;;;;;;11.20;10.17;;;;;;;;;;4979760;28;20308;-84
2023/10/27 06:40:29;;;;;;;13.47;9.67;;;;;;;;;;4933283;28;20679;-87
2023/10/27 06:42:57;;;;;;;10.77;9.67;;;;;;;;;;4966260;28;20314;-84
2023/10/27 06:45:23;;;;;;;10.93;9.87;;;;;;;;;;4934008;28;20225;-85
2023/10/27 06:47:48;;;;;;;10.83;9.83;;;;;;;;;;4980036;28;20292;-85
2023/10/27 06:50:14;;;;;;;11.17;10.17;;;;;;;;;;4979689;28;20256;-84
2023/10/27 06:52:42;;;;;;;11.73;10.73;;;;;;;;;;4965196;28;20229;-84
2023/10/27 06:55:10;;;;;;;13.07;11.87;;;;;;;;;;4977960;28;20224;-84
2023/10/27 06:57:37;;;;;;;12.00;10.77;;;;;;;;;;4993422;28;20300;-85
2023/10/27 07:00:08;;;;;;;11.70;10.60;;;;;;;;;;4975517;28;20232;-86
2023/10/27 07:02:34;;;;;;;14.43;13.03;;;;;;;;;;4976784;28;20228;-85
2023/10/27 07:05:04;;;;;;;11.90;10.80;;;;;;;;;;4976659;28;20240;-86
2023/10/27 07:07:29;;;;;;;11.87;10.83;;;;;;;;;;4978158;28;20307;-84
2023/10/27 07:09:55;;;;;;;11.87;10.77;;;;;;;;;;4955918;28;20235;-84
2023/10/27 07:12:21;;;;;;;11.87;10.77;;;;;;;;;;4988821;28;20256;-85
2023/10/27 07:14:48;;;;;;;11.90;10.80;;;;;;;;;;4960650;28;20281;-85
2023/10/27 07:17:14;;;;;;;11.97;10.50;;;;;;;;;;4967437;28;20233;-86
2023/10/27 07:19:40;;;;;;;11.27;9.23;;;;;;;;;;4946840;28;20225;-88
2023/10/27 07:22:05;;;;;;;12.97;10.27;;;;;;;;;;4960614;28;20233;-86
2023/10/27 07:24:33;;;;;;;11.43;10.43;;;;;;;;;;4957611;28;20628;-86
2023/10/27 07:26:58;;;;;;;10.73;9.73;;;;;;;;;;4978365;28;20230;-86
2023/10/27 07:29:27;;;;;;;10.40;9.50;;;;;;;;;;4959894;28;20214;-85
2023/10/27 07:31:53;;;;;;;13.30;10.37;;;;;;;;;;4963642;28;20235;-86
2023/10/27 07:34:22;;;;;;;11.23;10.27;;;;;;;;;;4974962;28;20222;-87
2023/10/27 07:36:49;;;;;;;10.27;9.27;;;;;;;;;;4958627;28;20222;-83
2023/10/27 07:39:18;;;;;;;11.00;9.60;;;;;;;;;;4978590;28;20763;-84
2023/10/27 07:41:46;;;;;;;10.33;9.33;;;;;;;;;;4993286;28;20697;-86
2023/10/27 07:44:15;;;;;;;10.50;9.50;;;;;;;;;;4944076;28;20217;-84
2023/10/27 07:46:40;;;;;;;11.07;9.63;;;;;;;;;;4992238;28;20234;-83
2023/10/27 07:49:06;;;;;;;10.77;9.77;;;;;;;;;;4991542;28;20232;-86
2023/10/27 07:51:34;;;;;;;13.50;10.63;;;;;;;;;;4990732;28;20225;-87
2023/10/27 07:54:03;;;;;;;12.40;10.47;;;;;;;;;;4977712;28;20216;-84
2023/10/27 07:56:32;;;;;;;12.13;10.47;;;;;;;;;;4979241;28;20705;-84
2023/10/27 07:58:58;;;;;;;13.00;11.13;;;;;;;;;;4993619;28;20614;-84
2023/10/27 08:01:24;;;;;;;17.00;11.33;;;;;;;;;;4972709;28;20225;-84
2023/10/27 08:03:50;;;;;;;11.93;10.73;;;;;;;;;;4975607;28;20205;-85
2023/10/27 08:06:18;;;;;;;12.77;11.57;;;;;;;;;;5001713;28;20670;-86
2023/10/27 08:08:48;;;;;;;14.70;11.47;;;;;;;;;;4992543;28;20249;-85
2023/10/27 08:11:15;;;;;;;13.43;12.07;;;;;;;;;;4974522;28;20229;-84
2023/10/27 08:13:44;;;;;;;12.03;10.97;;;;;;;;;;4977381;28;20221;-84
2023/10/27 08:16:09;;;;;;;13.07;11.83;;;;;;;;;;4958723;28;20227;-84
2023/10/27 08:18:36;;;;;;;14.33;11.30;;;;;;;;;;4943932;28;20500;-84
2023/10/27 08:21:02;;;;;;;11.90;10.70;;;;;;;;;;4962571;28;20221;-85
2023/10/27 08:23:32;;;;;;;12.27;10.97;;;;;;;;;;4990977;28;20509;-84
2023/10/27 08:25:58;;;;;;;11.93;10.90;;;;;;;;;;4991498;28;20680;-84
2023/10/27 08:28:24;;;;;;;13.23;12.03;;;;;;;;;;4968748;28;20264;-86
2023/10/27 08:30:49;;;;;;;12.57;11.47;;;;;;;;;;5000209;28;20237;-87
2023/10/27 08:33:15;;;;;;;11.90;10.63;;;;;;;;;;4962457;28;20268;-84
2023/10/27 08:35:40;;;;;;;12.13;10.97;;;;;;;;;;4978994;28;20717;-84
2023/10/27 08:38:09;;;;;;;12.20;11.00;;;;;;;;;;4959832;28;20248;-86
2023/10/27 08:40:39;;;;;;;14.43;12.47;;;;;;;;;;4979510;28;20226;-85
2023/10/27 08:43:07;;;;;;;12.70;11.50;;;;;;;;;;4978718;28;20279;-87
2023/10/27 08:45:37;;;;;;;12.20;11.00;;;;;;;;;;4994226;28;20229;-85
2023/10/27 08:48:05;;;;;;;11.20;10.20;;;;;;;;;;4966660;28;20237;-84
2023/10/27 08:50:35;;;;;;;12.70;11.47;;;;;;;;;;4979741;28;20241;-82
2023/10/27 08:53:04;;;;;;;13.33;12.03;;;;;;;;;;4962410;28;20304;-85
2023/10/27 08:55:29;;;;;;;13.23;12.13;;;;;;;;;;4977189;28;20237;-84
2023/10/27 08:57:56;;;;;;;12.83;11.67;;;;;;;;;;4961822;28;20229;-83
2023/10/27 09:00:21;;;;;;;13.30;11.97;;;;;;;;;;4959867;28;20303;-84
2023/10/27 09:02:49;;;;;;;14.03;12.37;;;;;;;;;;4956281;28;20214;-83
2023/10/27 09:05:15;;;;;;;14.27;12.97;;;;;;;;;;4958731;28;20225;-86
2023/10/27 09:07:40;;;;;;;13.13;11.73;;;;;;;;;;4978732;28;20225;-83
2023/10/27 09:10:11;;;;;;;13.57;12.00;;;;;;;;;;4958596;28;20916;-86
2023/10/27 09:12:38;;;;;;;13.73;12.20;;;;;;;;;;4957272;28;20238;-83
2023/10/27 09:15:12;;;;;;;12.17;11.07;;;;;;;;;;4976477;28;20305;-82
2023/10/27 09:17:58;;;;;;;12.93;11.40;;;;;;;;;;4958005;28;20212;-82
2023/10/27 09:20:25;;;;;;;12.47;11.27;;;;;;;;;;4987541;28;20225;-83
2023/10/27 09:23:02;;;;;;;13.53;12.00;;;;;;;;;;4957175;28;20236;-82
2023/10/27 09:25:28;;;;;;;12.60;11.37;;;;;;;;;;4987282;28;20217;-82
2023/10/27 09:27:55;;;;;;;11.80;10.50;;;;;;;;;;4975705;28;20241;-83
2023/10/27 09:30:32;;;;;;;11.93;10.73;;;;;;;;;;4967791;28;20332;-84
2023/10/27 09:33:26;;;;;;;11.93;10.83;;;;;;;;;;4978030;28;20221;-83
2023/10/27 09:35:54;;;;;;;11.37;9.63;;;;;;;;;;4999640;28;20225;-85
2023/10/27 09:38:25;;;;;;;11.43;10.37;;;;;;;;;;4984659;28;20221;-82
2023/10/27 09:40:53;;;;;;;11.20;10.10;;;;;;;;;;4966381;28;20225;-86
2023/10/27 09:43:19;;;;;;;11.20;9.63;;;;;;;;;;4978193;28;20270;-83
2023/10/27 09:45:52;;;;;;;12.03;10.83;;;;;;;;;;4978143;28;20238;-84
2023/10/27 09:48:23;;;;;;;10.73;9.50;;;;;;;;;;4976999;28;20225;-82
2023/10/27 09:50:49;;;;;;;10.70;9.40;;;;;;;;;;4963077;28;20247;-83
2023/10/27 09:53:17;;;;;;;11.17;10.00;;;;;;;;;;4949038;28;20214;-86
2023/10/27 09:55:45;;;;;;;11.97;9.83;;;;;;;;;;4966154;28;20228;-85
2023/10/27 09:58:10;;;;;;;11.37;10.17;;;;;;;;;;4994475;28;20859;-83
2023/10/27 10:00:38;;;;;;;11.30;10.10;;;;;;;;;;4966942;28;20222;-83
2023/10/27 10:03:04;;;;;;;12.73;10.60;;;;;;;;;;4980608;28;20249;-82
2023/10/27 10:05:53;;;;;;;12.27;10.60;;;;;;;;;;4979690;28;20224;-83
2023/10/27 10:08:21;;;;;;;10.67;9.63;;;;;;;;;;4992610;28;20866;-84
2023/10/27 10:10:49;;;;;;;15.53;10.40;;;;;;;;;;4962792;28;20233;-85
2023/10/27 10:13:16;;;;;;;11.23;10.07;;;;;;;;;;4962500;28;20244;-84
2023/10/27 10:15:42;;;;;;;10.43;9.43;;;;;;;;;;4962348;28;20230;-85
2023/10/27 10:18:19;;;;;;;10.40;9.23;;;;;;;;;;4948293;28;20241;-85
2023/10/27 10:20:47;;;;;;;14.53;9.90;;;;;;;;;;4998509;28;20228;-83
2023/10/27 10:23:18;;;;;;;13.27;9.57;;;;;;;;;;5010590;28;20226;-83
2023/10/27 10:25:56;;;;;;;15.10;9.60;;;;;;;;;;4983383;28;20240;-86
2023/10/27 10:28:22;;;;;;;12.47;8.50;;;;;;;;;;4961187;28;20233;-84
2023/10/27 10:31:17;;;;;;;8.33;7.53;;;;;;;;;;4980292;28;20695;-84
2023/10/27 10:33:46;;;;;;;8.70;7.80;;;;;;;;;;4995826;28;20226;-85
2023/10/27 10:36:14;;;;;;;7.93;7.03;;;;;;;;;;4944097;28;20672;-84
2023/10/27 10:38:43;;;;;;;7.73;7.03;;;;;;;;;;4994647;28;20234;-84
2023/10/27 10:41:15;;;;;;;8.53;7.07;;;;;;;;;;4979762;28;20594;-84
2023/10/27 10:44:22;;;;;;;6.90;6.30;;;;;;;;;;4957217;28;20228;-85
2023/10/27 10:46:53;;;;;;;8.40;6.73;;;;;;;;;;5019304;28;20205;-84
2023/10/27 10:49:25;;;;;;;5.97;5.37;;;;;;;;;;4978687;28;20260;-85
2023/10/27 10:51:59;;;;;;;6.37;5.77;;;;;;;;;;4992192;28;20317;-81
2023/10/27 10:54:36;;;;;;;6.23;5.63;;;;;;;;;;4956308;28;20990;-82
2023/10/27 10:57:08;;;;;;;9.37;5.67;;;;;;;;;;4987714;28;20287;-84
2023/10/27 10:59:36;;;;;;;5.57;5.07;;;;;;;;;;4980849;28;20320;-83
2023/10/27 11:02:04;;;;;;;5.97;5.10;;;;;;;;;;4980219;28;20242;-86
2023/10/27 11:04:34;;;;;;;5.00;4.50;;;;;;;;;;4995872;28;20226;-85
2023/10/27 11:07:06;;;;;;;16.23;4.97;;;;;;;;;;4965014;28;20225;-85
2023/10/27 11:09:31;;;;;;;4.80;4.40;;;;;;;;;;4963589;28;20239;-84
2023/10/27 11:11:57;;;;;;;4.60;4.20;;;;;;;;;;4981003;28;20213;-84
2023/10/27 11:14:23;;;;;;;4.77;4.37;;;;;;;;;;4962237;28;20244;-82
2023/10/27 11:16:59;;;;;;;5.00;4.60;;;;;;;;;;4962719;28;20236;-84
2023/10/27 11:19:25;;;;;;;4.93;4.53;;;;;;;;;;4987866;28;20233;-83
2023/10/27 11:21:56;;;;;;;5.03;4.37;;;;;;;;;;4980359;28;20213;-85
2023/10/27 11:24:24;;;;;;;6.10;5.30;;;;;;;;;;4981229;28;20224;-84
2023/10/27 11:26:54;;;;;;;4.70;4.40;;;;;;;;;;4996197;28;20920;-84
2023/10/27 11:29:19;;;;;;;5.40;4.73;;;;;;;;;;4963173;28;20311;-85
2023/10/27 11:31:47;;;;;;;5.07;4.67;;;;;;;;;;4981847;28;20236;-83
2023/10/27 11:34:21;;;;;;;5.93;4.90;;;;;;;;;;4980599;28;20217;-84
2023/10/27 11:37:00;;;;;;;5.63;4.93;;;;;;;;;;4980509;28;20662;-85
2023/10/27 11:39:28;;;;;;;5.47;5.07;;;;;;;;;;4973507;28;20233;-84
2023/10/27 11:42:02;;;;;;;6.93;5.63;;;;;;;;;;4963390;28;20230;-84
2023/10/27 11:44:35;;;;;;;5.40;5.00;;;;;;;;;;4980815;28;20248;-85
2023/10/27 11:47:04;;;;;;;6.23;5.63;;;;;;;;;;4999129;28;20253;-84
2023/10/27 11:49:35;;;;;;;5.73;5.23;;;;;;;;;;4962208;28;20221;-84
2023/10/27 11:52:00;;;;;;;7.57;5.47;;;;;;;;;;4963502;28;20249;-84
2023/10/27 11:54:26;;;;;;;6.23;5.73;;;;;;;;;;4981767;28;20213;-84
2023/10/27 11:56:54;;;;;;;6.60;6.00;;;;;;;;;;4964795;28;20647;-84
2023/10/27 11:59:24;;;;;;;5.93;5.43;;;;;;;;;;4964499;28;20232;-85
2023/10/27 12:01:50;;;;;;;7.70;6.40;;;;;;;;;;4999193;28;20222;-84
2023/10/27 12:04:16;;;;;;;7.83;7.10;;;;;;;;;;4980476;28;20224;-84
2023/10/27 12:06:46;;;;;;;7.30;6.60;;;;;;;;;;4995964;28;20317;-86
2023/10/27 12:09:16;;;;;;;9.80;6.63;;;;;;;;;;4982442;28;20232;-84
2023/10/27 12:11:42;;;;;;;6.87;6.17;;;;;;;;;;4963918;28;20220;-83
2023/10/27 12:14:10;;;;;;;7.37;6.57;;;;;;;;;;4968395;28;20228;-85
2023/10/27 12:16:36;;;;;;;6.80;6.23;;;;;;;;;;4947556;28;20225;-85
2023/10/27 12:19:09;;;;;;;7.30;6.60;;;;;;;;;;4967104;28;20256;-84
2023/10/27 12:21:35;;;;;;;8.20;7.00;;;;;;;;;;4950553;28;20233;-85
2023/10/27 12:24:00;;;;;;;7.37;6.70;;;;;;;;;;4982723;28;20224;-86
2023/10/27 12:26:26;;;;;;;7.57;6.87;;;;;;;;;;4946739;28;20292;-84
2023/10/27 12:28:56;;;;;;;8.03;7.33;;;;;;;;;;4966280;28;20225;-85
2023/10/27 12:31:22;;;;;;;8.70;7.90;;;;;;;;;;4999463;28;20285;-84
2023/10/27 12:33:49;;;;;;;8.63;7.73;;;;;;;;;;4970801;28;20272;-85
2023/10/27 12:36:17;;;;;;;7.73;7.03;;;;;;;;;;4987626;28;20225;-84
2023/10/27 12:38:45;;;;;;;10.63;8.17;;;;;;;;;;5001043;28;20230;-83
2023/10/27 12:41:13;;;;;;;8.80;7.53;;;;;;;;;;4965892;28;20217;-84
2023/10/27 12:43:41;;;;;;;9.00;8.17;;;;;;;;;;4984687;28;20225;-84
2023/10/27 12:46:09;;;;;;;9.77;8.77;;;;;;;;;;4960695;28;20225;-85
2023/10/27 12:48:34;;;;;;;9.67;8.73;;;;;;;;;;4985653;28;20230;-85
2023/10/27 12:51:00;;;;;;;11.50;9.70;;;;;;;;;;4955241;28;20218;-84
2023/10/27 12:53:27;;;;;;;10.47;9.47;;;;;;;;;;4957725;28;20214;-83
2023/10/27 12:55:53;;;;;;;12.10;10.90;;;;;;;;;;4990161;28;20245;-84
2023/10/27 12:58:18;;;;;;;10.87;9.77;;;;;;;;;;4993712;28;20289;-84
2023/10/27 13:00:46;;;;;;;12.53;10.83;;;;;;;;;;4978487;28;20221;-84
2023/10/27 13:03:12;;;;;;;12.53;11.33;;;;;;;;;;4986224;28;20225;-83
2023/10/27 13:05:39;;;;;;;12.77;11.47;;;;;;;;;;5004616;28;20236;-85
2023/10/27 13:08:07;;;;;;;11.33;10.20;;;;;;;;;;4990328;28;20233;-85
2023/10/27 13:10:35;;;;;;;12.70;11.33;;;;;;;;;;4974168;28;20228;-86
2023/10/27 13:13:03;;;;;;;12.07;10.70;;;;;;;;;;4964621;28;20233;-86
2023/10/27 13:15:35;;;;;;;15.43;12.93;;;;;;;;;;4994325;28;20230;-85
2023/10/27 13:18:04;;;;;;;17.93;14.90;;;;;;;;;;4965088;28;20686;-85
2023/10/27 13:20:33;;;;;;;15.27;13.87;;;;;;;;;;4974284;28;20233;-85
2023/10/27 13:23:01;;;;;;;16.00;14.50;;;;;;;;;;4965247;28;20308;-85
2023/10/27 13:25:30;;;;;;;16.27;14.60;;;;;;;;;;4989331;28;20785;-84
2023/10/27 13:27:55;;;;;;;16.07;14.47;;;;;;;;;;4958765;28;20241;-84
2023/10/27 13:30:24;;;;;;;18.53;16.53;;;;;;;;;;4983279;28;20236;-84
2023/10/27 13:32:52;;;;;;;21.03;16.20;;;;;;;;;;4993875;28;20222;-84
2023/10/27 13:35:20;;;;;;;18.93;16.93;;;;;;;;;;4977392;28;20684;-84
2023/10/27 13:37:53;;;;;;;20.33;15.63;;;;;;;;;;4979713;28;20272;-82
2023/10/27 13:40:21;;;;;;;17.47;15.77;;;;;;;;;;4981377;28;20242;-84
2023/10/27 13:42:46;;;;;;;19.13;16.20;;;;;;;;;;4982644;28;20280;-84
2023/10/27 13:45:17;;;;;;;18.97;16.37;;;;;;;;;;4964123;28;20504;-84
2023/10/27 13:47:45;;;;;;;19.33;16.33;;;;;;;;;;4967884;28;20639;-84
2023/10/27 13:50:13;;;;;;;17.23;15.53;;;;;;;;;;5001937;28;20213;-84
2023/10/27 13:52:39;;;;;;;18.63;16.07;;;;;;;;;;4990777;28;20601;-86
2023/10/27 13:55:05;;;;;;;19.70;17.60;;;;;;;;;;4971685;28;20237;-84
2023/10/27 13:57:33;;;;;;;17.63;15.77;;;;;;;;;;4974229;28;20232;-84
2023/10/27 14:00:02;;;;;;;15.33;13.73;;;;;;;;;;4987239;28;20224;-83
2023/10/27 14:02:38;;;;;;;15.33;13.23;;;;;;;;;;4994180;28;20221;-87
2023/10/27 14:05:04;;;;;;;16.00;12.97;;;;;;;;;;4962875;28;20224;-86
2023/10/27 14:07:29;;;;;;;13.13;11.93;;;;;;;;;;4981462;28;20603;-86
2023/10/27 14:09:57;;;;;;;13.30;11.97;;;;;;;;;;4984582;28;20264;-87
2023/10/27 14:12:23;;;;;;;12.83;11.13;;;;;;;;;;4951198;28;20229;-86
2023/10/27 14:14:51;;;;;;;14.50;11.60;;;;;;;;;;4959755;28;20232;-86
2023/10/27 14:17:16;;;;;;;12.30;11.00;;;;;;;;;;4967747;28;20225;-85
2023/10/27 14:19:42;;;;;;;11.50;10.17;;;;;;;;;;4978843;28;20229;-86
2023/10/27 14:22:07;;;;;;;9.23;8.23;;;;;;;;;;4979363;28;20225;-86
2023/10/27 14:24:35;;;;;;;9.50;8.53;;;;;;;;;;4962539;28;20249;-85
2023/10/27 14:27:06;;;;;;;8.67;7.87;;;;;;;;;;4958341;28;20280;-85
2023/10/27 14:29:34;;;;;;;9.33;7.57;;;;;;;;;;4979876;28;20260;-87
2023/10/27 14:32:05;;;;;;;9.27;8.03;;;;;;;;;;4976398;28;20572;-87
2023/10/27 14:34:34;;;;;;;8.30;7.50;;;;;;;;;;4991801;28;20225;-87
2023/10/27 14:37:03;;;;;;;8.40;7.43;;;;;;;;;;4985708;28;20703;-86
2023/10/27 14:39:34;;;;;;;9.50;7.77;;;;;;;;;;4975610;28;21626;-88